createdAt,value
2023-04-17T00:01:41.559Z,0.20
2023-04-17T00:04:13.074Z,0.30
2023-04-17T00:06:43.389Z,0.30
2023-04-17T00:09:11.991Z,0.20
2023-04-17T00:11:39.532Z,0.20
2023-04-17T00:14:06.684Z,0.30
2023-04-17T00:16:33.665Z,0.30
2023-04-17T00:19:00.570Z,0.28
2023-04-17T00:21:29.820Z,0.25
2023-04-17T00:23:56.838Z,0.20
2023-04-17T00:26:24.064Z,0.20
2023-04-17T00:28:51.826Z,0.20
2023-04-17T00:31:19.005Z,0.20
2023-04-17T00:33:46.420Z,0.30
2023-04-17T00:36:13.883Z,0.32
2023-04-17T00:38:41.283Z,0.30
2023-04-17T00:41:08.183Z,0.30
2023-04-17T00:43:35.140Z,0.30
2023-04-17T00:46:02.856Z,0.20
2023-04-17T00:48:29.826Z,0.20
2023-04-17T00:51:02.028Z,0.30
2023-04-17T00:53:31.595Z,0.30
2023-04-17T00:56:04.129Z,0.40
2023-04-17T00:58:36.977Z,0.28
2023-04-17T01:01:05.970Z,0.40
2023-04-17T01:03:33.342Z,0.40
2023-04-17T01:06:00.373Z,0.30
2023-04-17T01:08:27.454Z,0.32
2023-04-17T01:10:54.268Z,0.30
2023-04-17T01:13:21.433Z,0.30
2023-04-17T01:15:48.255Z,0.50
2023-04-17T01:18:15.174Z,0.20
2023-04-17T01:20:42.088Z,0.30
2023-04-17T01:23:09.083Z,0.30
2023-04-17T01:25:36.215Z,0.30
2023-04-17T01:28:03.145Z,0.32
2023-04-17T01:30:30.361Z,0.45
2023-04-17T01:32:57.265Z,0.40
2023-04-17T01:35:24.251Z,0.35
2023-04-17T01:37:51.190Z,0.68
2023-04-17T01:40:18.310Z,0.40
2023-04-17T01:42:45.367Z,0.40
2023-04-17T01:45:12.416Z,0.40
2023-04-17T01:47:39.362Z,0.60
2023-04-17T01:50:09.057Z,0.60
2023-04-17T01:52:36.472Z,0.70
2023-04-17T01:55:04.440Z,0.47
2023-04-17T01:57:33.189Z,0.55
2023-04-17T02:00:00.102Z,0.65
2023-04-17T02:02:29.985Z,0.70
2023-04-17T02:04:56.909Z,0.70
2023-04-17T02:07:23.944Z,0.90
2023-04-17T02:09:50.891Z,0.63
2023-04-17T02:12:17.763Z,0.73
2023-04-17T02:14:44.590Z,1.20
2023-04-17T02:17:11.546Z,0.80
2023-04-17T02:19:38.411Z,0.85
2023-04-17T02:22:05.376Z,0.82
2023-04-17T02:24:32.447Z,0.98
2023-04-17T02:26:59.279Z,0.82
2023-04-17T02:29:26.356Z,0.85
2023-04-17T02:31:53.322Z,1.27
2023-04-17T02:34:20.172Z,1.75
2023-04-17T02:36:47.013Z,1.42
2023-04-17T02:39:14.006Z,1.10
2023-04-17T02:41:40.982Z,1.77
2023-04-17T02:44:07.801Z,1.95
2023-04-17T02:46:34.693Z,1.67
2023-04-17T02:49:01.546Z,2.17
2023-04-17T02:51:28.475Z,2.00
2023-04-17T02:53:55.292Z,1.60
2023-04-17T02:56:22.142Z,2.30
2023-04-17T02:58:48.996Z,1.95
2023-04-17T03:01:16.008Z,1.98
2023-04-17T03:03:43.207Z,2.45
2023-04-17T03:06:10.352Z,2.17
2023-04-17T03:08:38.472Z,2.15
2023-04-17T03:11:06.565Z,2.83
2023-04-17T03:13:36.752Z,2.08
2023-04-17T03:16:04.808Z,2.30
2023-04-17T03:18:32.318Z,2.42
2023-04-17T03:20:59.193Z,2.20
2023-04-17T03:23:26.226Z,2.22
2023-04-17T03:25:53.407Z,3.25
2023-04-17T03:28:21.923Z,2.90
2023-04-17T03:30:49.424Z,2.40
2023-04-17T03:33:16.882Z,3.33
2023-04-17T03:35:46.450Z,3.35
2023-04-17T03:38:13.424Z,2.78
2023-04-17T03:40:40.795Z,2.35
2023-04-17T03:43:07.813Z,2.47
2023-04-17T03:45:35.912Z,2.83
2023-04-17T03:48:02.931Z,2.92
2023-04-17T03:50:29.874Z,2.65
2023-04-17T03:52:56.768Z,2.45
2023-04-17T03:55:23.757Z,2.90
2023-04-17T03:57:51.673Z,2.78
2023-04-17T04:00:19.434Z,2.95
2023-04-17T04:02:46.860Z,2.97
2023-04-17T04:05:13.964Z,3.60
2023-04-17T04:07:41.111Z,2.97
2023-04-17T04:10:08.585Z,3.53
2023-04-17T04:12:35.427Z,2.72
2023-04-17T04:15:02.558Z,3.40
2023-04-17T04:17:29.453Z,3.63
2023-04-17T04:19:56.365Z,2.95
2023-04-17T04:22:23.498Z,3.25
2023-04-17T04:24:53.622Z,3.78
2023-04-17T04:27:22.685Z,3.70
2023-04-17T04:29:49.820Z,3.42
2023-04-17T04:32:17.214Z,3.33
2023-04-17T04:34:44.693Z,3.42
2023-04-17T04:37:15.532Z,3.28
2023-04-17T04:39:43.240Z,2.90
2023-04-17T04:42:10.395Z,3.40
2023-04-17T04:44:37.472Z,3.80
2023-04-17T04:47:04.600Z,3.28
2023-04-17T04:49:31.670Z,3.05
2023-04-17T04:51:58.660Z,3.38
2023-04-17T04:54:25.553Z,3.72
2023-04-17T04:56:52.542Z,3.10
2023-04-17T04:59:19.494Z,3.95
2023-04-17T05:01:46.533Z,3.40
2023-04-17T05:04:13.401Z,2.92
2023-04-17T05:06:40.989Z,3.55
2023-04-17T05:09:07.820Z,3.90
2023-04-17T05:11:34.729Z,4.18
2023-04-17T05:14:01.635Z,3.78
2023-04-17T05:16:28.628Z,4.00
2023-04-17T05:18:56.068Z,3.80
2023-04-17T05:21:22.913Z,4.20
2023-04-17T05:23:49.829Z,4.00
2023-04-17T05:26:16.678Z,5.03
2023-04-17T05:28:45.107Z,4.85
2023-04-17T05:31:12.109Z,4.45
2023-04-17T05:33:39.004Z,4.30
2023-04-17T05:36:07.404Z,5.60
2023-04-17T05:38:34.260Z,4.82
2023-04-17T05:41:02.011Z,5.63
2023-04-17T05:43:28.991Z,5.72
2023-04-17T05:45:55.948Z,4.60
2023-04-17T05:48:23.254Z,5.45
2023-04-17T05:50:50.420Z,5.70
2023-04-17T05:53:17.670Z,4.97
2023-04-17T05:55:44.558Z,5.63
2023-04-17T05:58:23.273Z,5.40
2023-04-17T06:00:52.541Z,4.97
2023-04-17T06:03:20.954Z,5.07
2023-04-17T06:05:48.417Z,4.93
2023-04-17T06:08:15.582Z,5.28
2023-04-17T06:10:42.478Z,5.85
2023-04-17T06:13:09.337Z,5.28
2023-04-17T06:15:36.583Z,5.05
2023-04-17T06:18:03.491Z,4.80
2023-04-17T06:20:30.489Z,5.25
2023-04-17T06:22:57.456Z,5.22
2023-04-17T06:25:24.427Z,4.70
2023-04-17T06:27:51.414Z,4.65
2023-04-17T06:30:18.370Z,4.28
2023-04-17T06:32:45.301Z,4.70
2023-04-17T06:35:12.254Z,4.60
2023-04-17T06:37:39.232Z,5.18
2023-04-17T06:40:07.503Z,4.55
2023-04-17T06:42:35.496Z,5.03
2023-04-17T06:45:02.411Z,5.43
2023-04-17T06:47:29.413Z,4.55
2023-04-17T06:49:57.950Z,4.55
2023-04-17T06:52:24.898Z,4.90
2023-04-17T06:54:54.281Z,4.65
2023-04-17T06:57:22.177Z,4.53
2023-04-17T06:59:49.107Z,4.15
2023-04-17T07:02:16.458Z,3.95
2023-04-17T07:04:43.596Z,4.18
2023-04-17T07:07:11.128Z,4.72
2023-04-17T07:09:38.038Z,4.80
2023-04-17T07:12:05.560Z,4.60
2023-04-17T07:14:33.582Z,4.35
2023-04-17T07:17:00.598Z,5.43
2023-04-17T07:19:27.582Z,5.20
2023-04-17T07:21:54.402Z,5.25
2023-04-17T07:24:21.268Z,4.90
2023-04-17T07:26:49.654Z,5.13
2023-04-17T07:29:16.972Z,5.10
2023-04-17T07:31:44.197Z,5.15
2023-04-17T07:34:11.209Z,4.97
2023-04-17T07:36:38.017Z,4.60
2023-04-17T07:39:06.445Z,4.80
2023-04-17T07:41:33.483Z,5.47
2023-04-17T07:44:03.254Z,5.43
2023-04-17T07:46:30.125Z,5.13
2023-04-17T07:48:57.222Z,5.50
2023-04-17T07:51:24.091Z,5.28
2023-04-17T07:53:51.207Z,6.03
2023-04-17T07:56:18.181Z,5.40
2023-04-17T07:58:51.857Z,5.13
2023-04-17T08:01:18.932Z,5.97
2023-04-17T08:03:46.199Z,4.70
2023-04-17T08:06:13.348Z,5.63
2023-04-17T08:08:40.211Z,5.40
2023-04-17T08:11:07.268Z,5.20
2023-04-17T08:13:34.306Z,4.30
2023-04-17T08:16:01.605Z,5.07
2023-04-17T08:18:28.565Z,5.22
2023-04-17T08:20:55.575Z,6.07
2023-04-17T08:23:22.398Z,5.57
2023-04-17T08:25:49.446Z,6.13
2023-04-17T08:28:16.382Z,6.18
2023-04-17T08:30:43.346Z,5.75
2023-04-17T08:33:10.475Z,5.13
2023-04-17T08:35:37.449Z,5.70
2023-04-17T08:38:04.339Z,6.30
2023-04-17T08:40:31.607Z,6.25
2023-04-17T08:43:01.735Z,6.35
2023-04-17T08:45:28.768Z,6.90
2023-04-17T08:47:55.908Z,5.85
2023-04-17T08:50:23.305Z,7.60
2023-04-17T08:52:52.579Z,7.00
2023-04-17T08:55:23.676Z,6.72
2023-04-17T08:58:04.218Z,6.90
2023-04-17T09:00:34.567Z,7.68
2023-04-17T09:03:14.835Z,7.80
2023-04-17T09:05:45.918Z,8.70
2023-04-17T09:08:21.353Z,8.60
2023-04-17T09:10:51.271Z,8.38
2023-04-17T09:13:20.980Z,10.50
2023-04-17T09:16:07.384Z,9.93
2023-04-17T09:18:36.897Z,9.38
2023-04-17T09:21:06.512Z,10.90
2023-04-17T09:23:56.118Z,10.77
2023-04-17T09:26:25.866Z,10.45
2023-04-17T09:29:04.305Z,9.88
2023-04-17T09:31:34.330Z,10.13
2023-04-17T09:34:04.747Z,9.52
2023-04-17T09:36:34.713Z,9.52
2023-04-17T09:39:19.142Z,9.90
2023-04-17T09:41:46.805Z,9.68
2023-04-17T09:44:27.160Z,8.48
2023-04-17T09:46:54.742Z,8.68
2023-04-17T09:49:49.390Z,8.88
2023-04-17T09:52:16.905Z,8.20
2023-04-17T09:54:46.272Z,9.55
2023-04-17T09:57:13.548Z,9.70
2023-04-17T09:59:42.795Z,7.90
2023-04-17T10:02:11.630Z,9.07
2023-04-17T10:04:43.473Z,9.63
2023-04-17T10:07:11.307Z,10.30
2023-04-17T10:09:41.756Z,9.63
2023-04-17T10:12:21.256Z,11.23
2023-04-17T10:14:52.356Z,10.60
2023-04-17T10:17:26.415Z,9.52
2023-04-17T10:19:53.495Z,9.20
2023-04-17T10:22:20.344Z,10.13
2023-04-17T10:24:51.963Z,9.75
2023-04-17T10:27:25.632Z,10.02
2023-04-17T10:30:01.588Z,9.38
2023-04-17T10:32:30.134Z,9.80
2023-04-17T10:34:58.843Z,10.07
2023-04-17T10:37:47.948Z,10.32
2023-04-17T10:40:23.591Z,10.38
2023-04-17T10:43:23.396Z,10.38
2023-04-17T10:46:11.012Z,9.45
2023-04-17T10:48:52.336Z,8.48
2023-04-17T10:51:26.961Z,8.75
2023-04-17T10:53:57.696Z,8.30
2023-04-17T10:56:42.558Z,8.68
2023-04-17T10:59:19.013Z,7.68
2023-04-17T11:01:48.780Z,8.27
2023-04-17T11:04:29.712Z,8.52
2023-04-17T11:06:57.121Z,9.27
2023-04-17T11:09:28.114Z,10.55
2023-04-17T11:12:01.893Z,8.45
2023-04-17T11:14:30.423Z,9.13
2023-04-17T11:16:57.724Z,8.52
2023-04-17T11:19:26.350Z,9.98
2023-04-17T11:22:01.493Z,9.70
2023-04-17T11:24:31.154Z,9.13
2023-04-17T11:27:01.136Z,9.73
2023-04-17T11:29:28.419Z,9.73
2023-04-17T11:31:58.114Z,8.60
2023-04-17T11:34:28.241Z,9.90
2023-04-17T11:37:00.519Z,8.50
2023-04-17T11:39:33.357Z,9.10
2023-04-17T11:42:02.669Z,8.95
2023-04-17T11:44:29.652Z,8.50
2023-04-17T11:46:58.891Z,9.38
2023-04-17T11:49:31.792Z,9.20
2023-04-17T11:52:04.389Z,8.93
2023-04-17T11:54:38.750Z,9.27
2023-04-17T11:57:14.579Z,9.35
2023-04-17T11:59:42.820Z,7.60
2023-04-17T12:02:10.636Z,7.25
2023-04-17T12:04:39.964Z,8.93
2023-04-17T12:07:08.505Z,7.95
2023-04-17T12:09:36.699Z,7.13
2023-04-17T12:12:07.926Z,8.05
2023-04-17T12:14:35.330Z,8.23
2023-04-17T12:17:02.293Z,7.40
2023-04-17T12:19:31.582Z,7.88
2023-04-17T12:21:59.442Z,7.40
2023-04-17T12:24:26.514Z,6.88
2023-04-17T12:26:53.586Z,7.13
2023-04-17T12:29:29.430Z,6.95
2023-04-17T12:32:07.887Z,7.00
2023-04-17T12:34:34.818Z,7.50
2023-04-17T12:37:01.627Z,6.95
2023-04-17T12:39:28.437Z,6.85
2023-04-17T12:41:55.308Z,7.80
2023-04-17T12:44:22.173Z,7.72
2023-04-17T12:46:49.065Z,7.68
2023-04-17T12:49:15.900Z,6.68
2023-04-17T12:51:42.695Z,7.80
2023-04-17T12:54:09.559Z,7.60
2023-04-17T12:56:36.493Z,6.40
2023-04-17T12:59:03.462Z,6.65
2023-04-17T13:01:30.620Z,5.45
2023-04-17T13:03:57.656Z,6.68
2023-04-17T13:06:25.172Z,5.97
2023-04-17T13:08:51.995Z,6.05
2023-04-17T13:11:18.831Z,5.47
2023-04-17T13:13:45.741Z,5.25
2023-04-17T13:16:12.635Z,5.63
2023-04-17T13:18:39.586Z,5.03
2023-04-17T13:21:06.611Z,5.53
2023-04-17T13:23:33.497Z,5.35
2023-04-17T13:26:00.428Z,5.68
2023-04-17T13:28:27.231Z,4.93
2023-04-17T13:30:54.076Z,5.32
2023-04-17T13:33:20.903Z,4.80
2023-04-17T13:35:47.906Z,5.10
2023-04-17T13:38:14.755Z,4.70
2023-04-17T13:40:41.705Z,3.97
2023-04-17T13:43:09.110Z,4.30
2023-04-17T13:45:36.154Z,4.65
2023-04-17T13:48:03.198Z,4.28
2023-04-17T13:50:30.268Z,3.97
2023-04-17T13:52:57.108Z,3.72
2023-04-17T13:55:24.150Z,3.63
2023-04-17T13:57:51.655Z,4.70
2023-04-17T14:00:18.984Z,4.88
2023-04-17T14:02:46.036Z,4.15
2023-04-17T14:05:13.319Z,3.22
2023-04-17T14:07:40.488Z,4.40
2023-04-17T14:10:08.686Z,3.97
2023-04-17T14:12:35.689Z,3.65
2023-04-17T14:15:02.596Z,3.85
2023-04-17T14:17:38.640Z,3.70
2023-04-17T14:20:06.839Z,3.60
2023-04-17T14:22:33.766Z,3.95
2023-04-17T14:25:00.626Z,4.00
2023-04-17T14:27:27.542Z,3.67
2023-04-17T14:29:54.359Z,4.75
2023-04-17T14:32:21.272Z,3.80
2023-04-17T14:34:48.090Z,3.90
2023-04-17T14:37:14.968Z,3.58
2023-04-17T14:39:41.771Z,3.67
2023-04-17T14:42:08.631Z,4.07
2023-04-17T14:44:35.511Z,3.67
2023-04-17T14:47:03.037Z,3.65
2023-04-17T14:49:30.306Z,3.90
2023-04-17T14:51:57.143Z,3.70
2023-04-17T14:54:24.155Z,4.25
2023-04-17T14:56:51.309Z,3.70
2023-04-17T14:59:18.304Z,3.58
2023-04-17T15:01:45.454Z,3.38
2023-04-17T15:04:12.505Z,3.53
2023-04-17T15:06:39.499Z,3.45
2023-04-17T15:09:06.771Z,3.47
2023-04-17T15:11:33.595Z,2.95
2023-04-17T15:14:00.682Z,3.22
2023-04-17T15:16:27.722Z,2.97
2023-04-17T15:18:54.676Z,4.05
2023-04-17T15:21:21.586Z,2.78
2023-04-17T15:23:48.486Z,3.50
2023-04-17T15:26:15.463Z,3.60
2023-04-17T15:28:42.376Z,3.63
2023-04-17T15:31:09.358Z,4.20
2023-04-17T15:33:37.743Z,5.70
2023-04-17T15:36:05.016Z,6.47
2023-04-17T15:38:31.864Z,6.88
2023-04-17T15:40:59.098Z,6.35
2023-04-17T15:43:26.912Z,5.93
2023-04-17T15:45:55.080Z,7.78
2023-04-17T15:48:22.085Z,7.53
2023-04-17T15:50:48.927Z,6.00
2023-04-17T15:53:15.924Z,5.80
2023-04-17T15:55:42.751Z,5.35
2023-04-17T15:58:09.584Z,5.78
2023-04-17T16:00:36.470Z,4.72
2023-04-17T16:03:03.599Z,4.65
2023-04-17T16:05:30.707Z,5.32
2023-04-17T16:07:57.686Z,5.57
2023-04-17T16:10:24.908Z,4.65
2023-04-17T16:12:51.725Z,4.20
2023-04-17T16:15:18.909Z,3.90
2023-04-17T16:17:46.034Z,4.10
2023-04-17T16:20:13.408Z,4.05
2023-04-17T16:22:40.617Z,3.88
2023-04-17T16:25:08.101Z,3.33
2023-04-17T16:27:37.279Z,2.80
2023-04-17T16:30:05.987Z,3.25
2023-04-17T16:32:32.972Z,3.67
2023-04-17T16:35:00.050Z,3.78
2023-04-17T16:37:27.021Z,3.75
2023-04-17T16:39:53.894Z,3.97
2023-04-17T16:42:20.723Z,4.18
2023-04-17T16:44:48.220Z,4.55
2023-04-17T16:47:15.395Z,3.88
2023-04-17T16:49:42.840Z,4.50
2023-04-17T16:52:09.810Z,4.70
2023-04-17T16:54:36.690Z,5.30
2023-04-17T16:57:05.181Z,4.82
2023-04-17T16:59:33.019Z,4.57
2023-04-17T17:02:02.515Z,4.82
2023-04-17T17:04:30.575Z,5.10
2023-04-17T17:06:57.777Z,5.78
2023-04-17T17:09:25.773Z,5.13
2023-04-17T17:11:53.030Z,4.78
2023-04-17T17:14:19.839Z,5.50
2023-04-17T17:16:46.703Z,8.25
2023-04-17T17:19:14.651Z,8.50
2023-04-17T17:21:41.756Z,6.68
2023-04-17T17:24:08.690Z,5.28
2023-04-17T17:26:36.987Z,4.97
2023-04-17T17:29:04.662Z,4.68
2023-04-17T17:31:34.366Z,4.30
2023-04-17T17:34:11.802Z,4.70
2023-04-17T17:36:49.342Z,4.07
2023-04-17T17:39:16.592Z,4.90
2023-04-17T17:41:45.781Z,3.80
2023-04-17T17:44:14.467Z,3.20
2023-04-17T17:46:41.709Z,3.13
2023-04-17T17:49:08.639Z,3.00
2023-04-17T17:51:35.605Z,2.97
2023-04-17T17:54:02.748Z,2.70
2023-04-17T17:56:29.829Z,2.97
2023-04-17T17:58:56.799Z,3.38
2023-04-17T18:01:25.105Z,3.38
2023-04-17T18:03:53.183Z,3.58
2023-04-17T18:06:20.900Z,3.28
2023-04-17T18:08:47.919Z,3.35
2023-04-17T18:11:14.926Z,3.60
2023-04-17T18:13:41.802Z,3.00
2023-04-17T18:16:09.227Z,2.90
2023-04-17T18:18:36.375Z,2.80
2023-04-17T18:21:08.122Z,3.15
2023-04-17T18:23:35.631Z,3.10
2023-04-17T18:26:04.094Z,2.85
2023-04-17T18:28:31.254Z,3.15
2023-04-17T18:30:58.354Z,2.88
2023-04-17T18:33:25.432Z,2.90
2023-04-17T18:35:52.427Z,2.95
2023-04-17T18:38:19.382Z,3.88
2023-04-17T18:40:46.405Z,3.55
2023-04-17T18:43:13.319Z,3.65
2023-04-17T18:45:40.310Z,3.03
2023-04-17T18:48:07.376Z,3.15
2023-04-17T18:50:34.491Z,4.30
2023-04-17T18:53:02.155Z,4.90
2023-04-17T18:55:29.369Z,5.70
2023-04-17T18:57:56.346Z,5.72
2023-04-17T19:00:23.506Z,5.78
2023-04-17T19:02:50.514Z,5.32
2023-04-17T19:05:17.562Z,5.05
2023-04-17T19:07:44.446Z,4.60
2023-04-17T19:10:11.563Z,4.20
2023-04-17T19:12:38.556Z,4.18
2023-04-17T19:15:06.928Z,4.18
2023-04-17T19:17:33.887Z,4.07
2023-04-17T19:20:00.906Z,4.80
2023-04-17T19:22:27.982Z,4.15
2023-04-17T19:24:54.912Z,4.68
2023-04-17T19:27:23.775Z,4.15
2023-04-17T19:29:51.317Z,3.97
2023-04-17T19:32:18.503Z,4.50
2023-04-17T19:34:46.087Z,4.03
2023-04-17T19:37:13.427Z,4.13
2023-04-17T19:39:40.384Z,4.57
2023-04-17T19:42:07.307Z,5.22
2023-04-17T19:44:34.319Z,4.93
2023-04-17T19:47:01.247Z,4.32
2023-04-17T19:49:28.283Z,4.25
2023-04-17T19:51:55.198Z,4.32
2023-04-17T19:54:22.074Z,4.40
2023-04-17T19:56:48.900Z,4.50
2023-04-17T19:59:16.016Z,4.38
2023-04-17T20:01:44.350Z,5.20
2023-04-17T20:04:11.697Z,6.20
2023-04-17T20:06:39.836Z,6.68
2023-04-17T20:09:06.905Z,7.05
2023-04-17T20:11:34.565Z,5.90
2023-04-17T20:14:01.414Z,4.97
2023-04-17T20:16:28.400Z,4.53
2023-04-17T20:18:56.658Z,5.68
2023-04-17T20:21:24.168Z,5.65
2023-04-17T20:23:51.352Z,5.95
2023-04-17T20:26:18.450Z,6.05
2023-04-17T20:28:45.332Z,5.70
2023-04-17T20:31:12.231Z,5.70
2023-04-17T20:33:39.178Z,4.90
2023-04-17T20:36:06.440Z,5.47
2023-04-17T20:38:33.377Z,5.35
2023-04-17T20:41:00.341Z,4.55
2023-04-17T20:43:27.244Z,5.00
2023-04-17T20:45:54.205Z,5.40
2023-04-17T20:48:21.541Z,5.72
2023-04-17T20:50:48.418Z,4.78
2023-04-17T20:53:15.279Z,5.90
2023-04-17T20:55:42.172Z,5.63
2023-04-17T20:58:09.264Z,5.47
2023-04-17T21:00:37.260Z,5.50
2023-04-17T21:05:34.101Z,4.93
2023-04-17T21:08:00.936Z,5.38
2023-04-17T21:10:27.820Z,6.38
2023-04-17T21:12:54.629Z,6.72
2023-04-17T21:15:21.552Z,6.20
2023-04-17T21:17:48.585Z,6.32
2023-04-17T21:20:15.580Z,6.68
2023-04-17T21:22:42.409Z,6.38
2023-04-17T21:25:09.664Z,6.35
2023-04-17T21:27:36.786Z,5.72
2023-04-17T21:30:04.458Z,6.65
2023-04-17T21:32:31.566Z,6.72
2023-04-17T21:34:58.477Z,6.70
2023-04-17T21:37:25.349Z,6.20
2023-04-17T21:39:52.168Z,6.75
2023-04-17T21:42:18.975Z,7.50
2023-04-17T21:44:45.816Z,7.20
2023-04-17T21:47:14.500Z,7.20
2023-04-17T21:49:41.380Z,6.63
2023-04-17T21:52:08.264Z,6.28
2023-04-17T21:54:35.256Z,6.85
2023-04-17T21:57:03.344Z,7.10
2023-04-17T21:59:30.747Z,6.45
2023-04-17T22:01:57.663Z,7.22
2023-04-17T22:04:25.719Z,6.13
2023-04-17T22:06:54.258Z,6.40
2023-04-17T22:09:21.911Z,6.43
2023-04-17T22:11:49.742Z,6.30
2023-04-17T22:14:17.173Z,6.88
2023-04-17T22:16:44.238Z,5.82
2023-04-17T22:19:11.083Z,6.13
2023-04-17T22:21:37.918Z,6.35
2023-04-17T22:24:05.119Z,5.70
2023-04-17T22:26:31.943Z,5.32
2023-04-17T22:28:58.751Z,5.25
2023-04-17T22:31:25.696Z,5.70
2023-04-17T22:33:52.573Z,5.45
2023-04-17T22:36:19.412Z,4.95
2023-04-17T22:38:46.251Z,4.75
2023-04-17T22:41:13.135Z,4.18
2023-04-17T22:43:39.956Z,3.78
2023-04-17T22:46:06.943Z,3.67
2023-04-17T22:48:34.938Z,4.28
2023-04-17T22:51:02.336Z,4.15
2023-04-17T22:53:29.586Z,4.05
2023-04-17T22:56:01.969Z,3.65
2023-04-17T22:58:31.681Z,3.95
2023-04-17T23:00:59.088Z,3.53
2023-04-17T23:03:25.995Z,3.60
2023-04-17T23:05:56.555Z,3.33
2023-04-17T23:08:24.179Z,3.47
2023-04-17T23:11:01.971Z,3.20
2023-04-17T23:13:30.564Z,2.83
2023-04-17T23:15:57.986Z,3.45
2023-04-17T23:18:25.044Z,2.88
2023-04-17T23:20:52.002Z,3.60
2023-04-17T23:23:18.958Z,3.40
2023-04-17T23:25:46.071Z,3.47
2023-04-17T23:28:13.043Z,3.50
2023-04-17T23:30:40.160Z,3.42
2023-04-17T23:33:07.327Z,3.70
2023-04-17T23:35:34.194Z,3.80
2023-04-17T23:38:01.031Z,3.40
2023-04-17T23:40:28.217Z,3.80
2023-04-17T23:42:55.649Z,3.58
2023-04-17T23:45:22.502Z,4.40
2023-04-17T23:47:49.412Z,4.13
2023-04-17T23:50:16.312Z,4.00
2023-04-17T23:52:43.204Z,4.75
2023-04-17T23:55:10.046Z,4.15
2023-04-17T23:57:39.236Z,4.60
